Time;durP1;ratioP1;P1;durP2;ratioP2;P2;SDS_P1;SDS_P2;PMS_P1;PMS_P2;Temp;Humidity;BMP_temperature;BMP_pressure;BME280_temperature;BME280_humidity;BME280_pressure;Samples;Min_cycle;Max_cycle;Signal;HPM_P1;HPM_P2
2022/09/21 00:00:49;;;;;;;4.75;2.80;;;10.20;99.90;;;;;;7375672;19;20503;-43
2022/09/21 00:03:22;;;;;;;7.20;3.20;;;10.30;99.90;;;;;;7373687;19;20132;-44
2022/09/21 00:05:51;;;;;;;7.15;2.72;;;10.10;99.90;;;;;;7375199;19;20379;-43
2022/09/21 00:08:21;;;;;;;8.15;3.47;;;9.90;99.90;;;;;;7374041;19;20131;-45
2022/09/21 00:10:52;;;;;;;6.10;3.20;;;9.70;99.90;;;;;;7374957;19;20473;-45
2022/09/21 00:13:25;;;;;;;4.90;2.88;;;9.90;99.90;;;;;;7369391;19;20372;-45
2022/09/21 00:15:55;;;;;;;7.07;3.43;;;10.00;99.90;;;;;;7371746;19;20150;-45
2022/09/21 00:18:29;;;;;;;4.23;2.50;;;10.00;99.90;;;;;;7372362;19;20446;-45
2022/09/21 00:20:59;;;;;;;4.13;2.60;;;10.00;99.90;;;;;;7375996;19;20384;-45
2022/09/21 00:23:31;;;;;;;9.07;4.00;;;10.10;99.90;;;;;;7376280;19;21011;-45
2022/09/21 00:26:07;;;;;;;4.65;3.00;;;10.10;99.90;;;;;;7372940;19;20466;-46
2022/09/21 00:28:39;;;;;;;5.50;2.83;;;9.90;99.90;;;;;;7372941;19;20143;-45
2022/09/21 00:31:10;;;;;;;6.07;3.28;;;9.80;99.90;;;;;;7372361;19;20132;-45
2022/09/21 00:33:44;;;;;;;5.28;3.30;;;9.80;99.90;;;;;;7373112;19;20416;-45
2022/09/21 00:36:15;;;;;;;5.17;2.90;;;9.80;99.90;;;;;;7377773;19;20131;-47
2022/09/21 00:38:47;;;;;;;3.72;2.75;;;9.70;99.90;;;;;;7369417;19;20383;-45
2022/09/21 00:41:17;;;;;;;4.07;2.90;;;9.60;99.90;;;;;;7368105;19;20621;-44
2022/09/21 00:43:49;;;;;;;4.60;3.20;;;9.70;99.90;;;;;;7373730;19;20132;-45
2022/09/21 00:46:27;;;;;;;5.55;3.20;;;9.80;99.90;;;;;;7377274;19;20131;-45
2022/09/21 00:49:00;;;;;;;4.05;3.10;;;9.90;99.90;;;;;;7371073;19;20721;-43
2022/09/21 00:51:30;;;;;;;6.53;3.58;;;9.90;99.90;;;;;;7372370;19;20123;-44
2022/09/21 00:54:06;;;;;;;5.07;3.45;;;10.00;99.90;;;;;;7378144;19;20502;-43
2022/09/21 00:56:36;;;;;;;6.65;3.22;;;10.00;99.90;;;;;;7375709;19;20501;-43
2022/09/21 00:59:07;;;;;;;5.50;2.75;;;10.00;99.90;;;;;;7367140;19;20215;-43
2022/09/21 01:01:37;;;;;;;6.22;4.00;;;9.90;99.90;;;;;;7368781;19;20159;-43
2022/09/21 01:04:12;;;;;;;4.93;2.97;;;9.90;99.90;;;;;;7376074;19;20162;-43
2022/09/21 01:06:43;;;;;;;8.95;4.07;;;9.90;99.90;;;;;;7371484;19;21125;-45
2022/09/21 01:09:15;;;;;;;6.07;3.38;;;9.80;99.90;;;;;;7373894;19;20626;-45
2022/09/21 01:11:55;;;;;;;8.00;3.60;;;9.40;99.90;;;;;;7378298;19;20473;-45
2022/09/21 01:14:48;;;;;;;5.78;3.90;;;9.30;99.90;;;;;;7360677;19;20717;-45
2022/09/21 01:17:26;;;;;;;6.10;3.50;;;9.30;99.90;;;;;;7374460;19;20158;-43
2022/09/21 01:20:34;;;;;;;6.50;3.22;;;9.40;99.90;;;;;;7376173;19;20203;-44
2022/09/21 01:23:25;;;;;;;10.70;4.72;;;9.50;99.90;;;;;;7378027;19;20219;-43
2022/09/21 01:26:08;;;;;;;4.97;4.00;;;9.50;99.90;;;;;;7373487;19;20562;-45
2022/09/21 01:28:59;;;;;;;5.60;3.70;;;9.40;99.90;;;;;;7372493;19;20136;-44
2022/09/21 01:31:39;;;;;;;7.70;3.10;;;9.40;99.90;;;;;;7371817;19;20177;-44
2022/09/21 01:34:17;;;;;;;7.55;3.95;;;9.50;99.90;;;;;;7374141;19;20131;-44
2022/09/21 01:36:50;;;;;;;8.32;3.45;;;9.50;99.90;;;;;;7368717;19;20160;-44
2022/09/21 01:39:22;;;;;;;7.13;4.07;;;9.50;99.90;;;;;;7371341;19;20195;-44
2022/09/21 01:41:54;;;;;;;6.70;3.50;;;9.50;99.90;;;;;;7371931;19;20387;-43
2022/09/21 01:44:29;;;;;;;6.82;3.55;;;9.30;99.90;;;;;;7374718;19;20388;-46
2022/09/21 01:47:02;;;;;;;5.22;3.80;;;9.40;99.90;;;;;;7370960;19;20210;-45
2022/09/21 01:49:36;;;;;;;6.90;4.03;;;9.30;99.90;;;;;;7371204;19;20136;-43
2022/09/21 01:52:13;;;;;;;6.47;3.92;;;9.20;99.90;;;;;;7370410;19;20855;-43
2022/09/21 01:54:47;;;;;;;8.80;4.38;;;9.20;99.90;;;;;;7370327;19;20143;-43
2022/09/21 01:57:24;;;;;;;9.05;3.47;;;9.30;99.90;;;;;;7372687;19;20140;-43
2022/09/21 01:59:56;;;;;;;6.00;4.32;;;9.20;99.90;;;;;;7365119;19;20149;-44
2022/09/21 02:02:35;;;;;;;5.90;3.80;;;9.00;99.90;;;;;;7374779;19;20223;-43
2022/09/21 02:05:06;;;;;;;7.22;4.18;;;9.20;99.90;;;;;;7375164;19;20195;-45
2022/09/21 02:07:39;;;;;;;10.68;4.00;;;9.20;99.90;;;;;;7371484;19;20128;-45
2022/09/21 02:10:12;;;;;;;5.07;3.58;;;9.10;99.90;;;;;;7374112;19;20144;-45
2022/09/21 02:12:42;;;;;;;9.70;5.03;;;9.20;99.90;;;;;;7376263;19;20131;-45
2022/09/21 02:15:15;;;;;;;4.80;3.53;;;9.10;99.90;;;;;;7374579;19;20127;-45
2022/09/21 02:17:57;;;;;;;5.60;3.58;;;9.00;99.90;;;;;;7380229;19;20139;-43
2022/09/21 02:20:32;;;;;;;5.38;3.92;;;8.90;99.90;;;;;;7378779;19;20139;-45
2022/09/21 02:23:07;;;;;;;10.30;4.22;;;8.90;99.90;;;;;;7378401;19;20157;-45
2022/09/21 02:25:46;;;;;;;11.30;3.80;;;8.90;99.90;;;;;;7377949;19;20610;-45
2022/09/21 02:28:27;;;;;;;14.55;4.00;;;9.10;99.90;;;;;;7378646;19;20131;-45
2022/09/21 02:31:02;;;;;;;6.13;4.22;;;9.20;99.90;;;;;;7377992;19;20680;-45
2022/09/21 02:33:44;;;;;;;7.97;4.07;;;9.10;99.90;;;;;;7372593;19;20146;-45
2022/09/21 02:36:22;;;;;;;6.85;3.92;;;9.10;99.90;;;;;;7376301;19;20131;-45
2022/09/21 02:38:56;;;;;;;5.75;3.60;;;9.10;99.90;;;;;;7381725;19;21718;-45
2022/09/21 02:41:30;;;;;;;7.38;4.13;;;9.00;99.90;;;;;;7379485;19;20128;-44
2022/09/21 02:44:03;;;;;;;7.88;4.53;;;9.00;99.90;;;;;;7380330;19;20132;-45
2022/09/21 02:46:37;;;;;;;6.85;4.13;;;8.60;99.90;;;;;;7376613;19;20135;-46
2022/09/21 02:49:14;;;;;;;7.22;4.78;;;8.40;99.90;;;;;;7379536;19;20143;-44
2022/09/21 02:51:47;;;;;;;7.15;3.95;;;8.40;99.90;;;;;;7375146;19;20633;-44
2022/09/21 02:54:24;;;;;;;5.90;3.97;;;8.60;99.90;;;;;;7376056;19;20607;-44
2022/09/21 02:56:55;;;;;;;4.90;4.40;;;8.70;99.90;;;;;;7373944;19;20194;-44
2022/09/21 02:59:25;;;;;;;8.60;3.78;;;8.60;99.90;;;;;;7373063;19;20592;-44
2022/09/21 03:01:55;;;;;;;6.30;4.30;;;8.40;99.90;;;;;;7373378;19;20166;-44
2022/09/21 03:04:29;;;;;;;10.35;5.00;;;8.60;99.90;;;;;;7369576;19;20132;-44
2022/09/21 03:07:01;;;;;;;7.65;4.80;;;8.70;99.90;;;;;;7372804;19;20131;-44
2022/09/21 03:09:30;;;;;;;8.25;4.05;;;8.60;99.90;;;;;;7375104;19;20634;-44
2022/09/21 03:11:59;;;;;;;6.90;3.88;;;8.50;99.90;;;;;;7371917;19;20135;-45
2022/09/21 03:14:30;;;;;;;7.70;4.70;;;8.40;99.90;;;;;;7376496;19;20198;-44
2022/09/21 03:16:59;;;;;;;7.35;4.15;;;8.40;99.90;;;;;;7374403;19;20131;-44
2022/09/21 03:19:31;;;;;;;6.57;4.22;;;8.50;99.90;;;;;;7375605;19;20134;-44
2022/09/21 03:22:02;;;;;;;8.20;4.47;;;8.70;99.90;;;;;;7375263;19;20153;-44
2022/09/21 03:27:13;;;;;;;8.57;4.55;;;9.00;99.90;;;;;;7374644;19;20136;-44
2022/09/21 03:29:43;;;;;;;8.13;4.60;;;9.10;99.90;;;;;;7376666;19;20134;-44
2022/09/21 03:32:13;;;;;;;7.32;4.30;;;9.00;99.90;;;;;;7379683;19;20140;-44
2022/09/21 03:34:45;;;;;;;8.40;4.50;;;9.00;99.90;;;;;;7371529;19;20132;-44
2022/09/21 03:37:15;;;;;;;8.35;4.55;;;9.10;99.90;;;;;;7374180;19;20128;-44
2022/09/21 03:39:46;;;;;;;5.78;3.58;;;9.20;99.90;;;;;;7373351;19;20135;-44
2022/09/21 03:42:17;;;;;;;9.10;4.95;;;9.40;99.90;;;;;;7373444;19;20309;-44
2022/09/21 03:44:46;;;;;;;6.13;3.80;;;9.40;99.90;;;;;;7375153;19;20131;-44
2022/09/21 03:47:16;;;;;;;7.60;4.10;;;9.40;99.90;;;;;;7375751;19;20139;-44
2022/09/21 03:49:48;;;;;;;8.83;6.00;;;9.40;99.90;;;;;;7377510;19;20132;-48
2022/09/21 03:52:17;;;;;;;10.23;5.20;;;9.30;99.90;;;;;;7374105;19;20464;-45
2022/09/21 03:54:47;;;;;;;10.88;5.00;;;9.10;99.90;;;;;;7369963;19;20500;-45
2022/09/21 03:57:16;;;;;;;10.15;4.85;;;8.80;99.90;;;;;;7376298;19;20119;-45
2022/09/21 03:59:48;;;;;;;9.15;5.30;;;8.80;99.90;;;;;;7372386;19;20128;-45
2022/09/21 04:02:18;;;;;;;9.35;5.55;;;8.80;99.90;;;;;;7368031;19;20156;-45
2022/09/21 04:04:50;;;;;;;9.10;5.10;;;8.70;99.90;;;;;;7377525;19;20239;-45
2022/09/21 04:07:19;;;;;;;6.70;4.90;;;8.80;99.90;;;;;;7370403;19;20483;-45
2022/09/21 04:09:49;;;;;;;13.07;5.95;;;8.70;99.90;;;;;;7373802;19;22219;-44
2022/09/21 04:12:18;;;;;;;10.32;6.10;;;8.70;99.90;;;;;;7379273;19;20232;-44
2022/09/21 04:14:48;;;;;;;8.10;5.25;;;8.60;99.90;;;;;;7371607;19;20611;-45
2022/09/21 04:17:18;;;;;;;10.90;6.80;;;8.50;99.90;;;;;;7378524;19;20167;-45
2022/09/21 04:19:52;;;;;;;9.57;5.50;;;8.30;99.90;;;;;;7380494;19;20466;-44
2022/09/21 04:22:25;;;;;;;9.43;5.55;;;8.40;99.90;;;;;;7377990;19;20187;-45
2022/09/21 04:24:54;;;;;;;9.82;5.70;;;8.50;99.90;;;;;;7381161;19;20142;-44
2022/09/21 04:27:24;;;;;;;10.55;5.55;;;8.50;99.90;;;;;;7377063;19;20207;-45
2022/09/21 04:29:54;;;;;;;8.40;5.70;;;8.60;99.90;;;;;;7382929;19;20645;-45
2022/09/21 04:32:23;;;;;;;12.55;6.68;;;8.40;99.90;;;;;;7378147;19;20154;-44
2022/09/21 04:34:58;;;;;;;13.43;6.70;;;8.30;99.90;;;;;;7378335;19;20128;-44
2022/09/21 04:37:27;;;;;;;10.85;5.95;;;8.30;99.90;;;;;;7374522;19;20139;-44
2022/09/21 04:39:59;;;;;;;12.68;7.15;;;8.40;99.90;;;;;;7377451;19;20135;-45
2022/09/21 04:42:29;;;;;;;9.00;6.40;;;8.40;99.90;;;;;;7381014;19;20151;-44
2022/09/21 04:44:58;;;;;;;12.70;5.97;;;8.30;99.90;;;;;;7377184;19;20153;-44
2022/09/21 04:47:28;;;;;;;9.88;7.10;;;8.30;99.90;;;;;;7368889;19;20148;-44
2022/09/21 04:50:00;;;;;;;10.52;7.15;;;8.20;99.90;;;;;;7374560;19;20127;-45
2022/09/21 04:52:29;;;;;;;14.52;7.25;;;8.10;99.90;;;;;;7376368;19;20127;-44
2022/09/21 04:54:58;;;;;;;12.23;7.35;;;8.20;99.90;;;;;;7371597;19;20127;-45
2022/09/21 04:57:28;;;;;;;16.48;9.52;;;8.30;99.90;;;;;;7370394;19;20124;-45
2022/09/21 04:59:57;;;;;;;9.55;6.25;;;8.30;99.90;;;;;;7376544;19;20142;-44
2022/09/21 05:02:27;;;;;;;9.65;6.20;;;8.40;99.90;;;;;;7360659;19;20541;-45
2022/09/21 05:04:59;;;;;;;9.80;5.88;;;8.30;99.90;;;;;;7381760;19;20943;-45
2022/09/21 05:07:29;;;;;;;8.95;5.57;;;8.40;99.90;;;;;;7380257;19;20127;-44
2022/09/21 05:10:01;;;;;;;12.48;6.88;;;8.40;99.90;;;;;;7371502;19;20185;-45
2022/09/21 05:12:31;;;;;;;9.43;6.20;;;8.30;99.90;;;;;;7380297;19;20171;-44
2022/09/21 05:15:01;;;;;;;10.20;5.40;;;8.40;99.90;;;;;;7377721;19;20163;-45
2022/09/21 05:17:31;;;;;;;10.43;6.82;;;8.50;99.90;;;;;;7377953;19;20128;-45
2022/09/21 05:20:03;;;;;;;8.00;6.25;;;8.60;99.90;;;;;;7377484;19;20541;-45
2022/09/21 05:22:36;;;;;;;10.90;6.38;;;8.60;99.90;;;;;;7379502;19;20745;-45
2022/09/21 05:25:06;;;;;;;12.38;6.72;;;8.60;99.90;;;;;;7378528;19;20198;-44
2022/09/21 05:27:36;;;;;;;9.40;6.70;;;8.50;99.90;;;;;;7372007;19;20132;-45
2022/09/21 05:30:07;;;;;;;13.07;6.20;;;8.30;99.90;;;;;;7370536;19;20477;-44
2022/09/21 05:32:46;;;;;;;10.52;7.18;;;8.20;99.90;;;;;;7371082;19;20136;-44
2022/09/21 05:35:30;;;;;;;11.80;6.65;;;7.90;99.90;;;;;;7370967;19;20124;-44
2022/09/21 05:38:05;;;;;;;17.52;6.85;;;7.90;99.90;;;;;;7367196;19;20152;-44
2022/09/21 05:40:36;;;;;;;9.98;6.95;;;8.10;99.90;;;;;;7370095;19;20135;-44
2022/09/21 05:43:06;;;;;;;8.80;6.13;;;8.30;99.90;;;;;;7381101;19;20131;-45
2022/09/21 05:45:38;;;;;;;8.82;6.28;;;8.40;99.90;;;;;;7377851;19;20973;-45
2022/09/21 05:48:16;;;;;;;11.82;6.65;;;8.40;99.90;;;;;;7386357;19;20123;-44
2022/09/21 05:50:59;;;;;;;8.85;6.65;;;8.50;99.90;;;;;;7387634;19;20143;-44
2022/09/21 05:53:50;;;;;;;9.75;6.05;;;8.60;99.90;;;;;;7385614;19;20155;-45
2022/09/21 05:56:40;;;;;;;11.20;6.40;;;8.50;99.90;;;;;;7386988;19;20142;-45
2022/09/21 05:59:32;;;;;;;13.02;7.78;;;8.50;99.90;;;;;;7386200;19;20131;-46
2022/09/21 06:02:08;;;;;;;9.43;6.30;;;8.50;99.90;;;;;;7383910;19;20155;-45
2022/09/21 06:04:38;;;;;;;11.52;6.72;;;8.50;99.90;;;;;;7386395;19;20123;-44
2022/09/21 06:07:10;;;;;;;12.75;7.05;;;8.50;99.90;;;;;;7384958;19;20134;-44
2022/09/21 06:09:40;;;;;;;13.95;7.20;;;8.50;99.90;;;;;;7379766;19;20147;-44
2022/09/21 06:12:11;;;;;;;10.38;6.95;;;8.50;99.90;;;;;;7378663;19;20131;-44
2022/09/21 06:14:41;;;;;;;11.70;7.00;;;8.60;99.90;;;;;;7381905;19;20757;-45
2022/09/21 06:17:13;;;;;;;10.98;6.93;;;8.50;99.90;;;;;;7375411;19;20569;-45
2022/09/21 06:19:43;;;;;;;11.57;7.55;;;8.30;99.90;;;;;;7383063;19;20203;-45
2022/09/21 06:22:15;;;;;;;11.30;7.40;;;8.20;99.90;;;;;;7380329;19;20131;-44
2022/09/21 06:24:44;;;;;;;13.88;8.07;;;8.40;99.90;;;;;;7383598;19;20139;-44
2022/09/21 06:27:14;;;;;;;12.35;7.03;;;8.50;99.90;;;;;;7381298;19;20135;-44
2022/09/21 06:29:43;;;;;;;11.38;6.72;;;8.60;99.90;;;;;;7382607;19;20602;-44
2022/09/21 06:32:13;;;;;;;12.77;9.10;;;8.60;99.90;;;;;;7382419;19;20665;-46
2022/09/21 06:34:42;;;;;;;11.13;7.03;;;8.70;99.90;;;;;;7382773;19;20254;-44
2022/09/21 06:37:14;;;;;;;15.57;8.55;;;8.60;99.90;;;;;;7383380;19;20863;-45
2022/09/21 06:39:44;;;;;;;11.32;8.07;;;8.80;99.90;;;;;;7380608;19;20157;-44
2022/09/21 06:42:15;;;;;;;12.10;8.23;;;8.70;99.90;;;;;;7380316;19;20231;-44
2022/09/21 06:44:45;;;;;;;12.52;8.80;;;8.60;99.90;;;;;;7380473;19;20234;-44
2022/09/21 06:47:14;;;;;;;11.05;8.15;;;8.70;99.90;;;;;;7376695;19;20149;-44
2022/09/21 06:49:44;;;;;;;16.55;8.40;;;9.10;99.90;;;;;;7377701;19;20139;-44
2022/09/21 06:52:16;;;;;;;14.30;7.70;;;9.30;99.90;;;;;;7375670;19;20131;-45
2022/09/21 06:54:45;;;;;;;9.10;6.93;;;9.60;99.90;;;;;;7374176;19;20270;-45
2022/09/21 06:57:15;;;;;;;11.47;7.10;;;10.00;99.90;;;;;;7379359;19;20388;-45
2022/09/21 06:59:44;;;;;;;18.93;7.90;;;10.30;99.90;;;;;;7381226;19;20914;-45
2022/09/21 07:02:14;;;;;;;9.73;6.80;;;10.60;99.90;;;;;;7376761;19;20428;-46
2022/09/21 07:04:44;;;;;;;11.13;6.07;;;10.90;99.90;;;;;;7371123;19;20445;-45
2022/09/21 07:07:16;;;;;;;11.20;7.10;;;11.20;99.90;;;;;;7381842;19;20745;-45
2022/09/21 07:09:47;;;;;;;13.83;6.83;;;11.50;99.90;;;;;;7377441;19;21090;-45
2022/09/21 07:12:19;;;;;;;6.10;5.50;;;11.70;99.90;;;;;;7377100;19;20369;-45
2022/09/21 07:14:49;;;;;;;11.27;7.03;;;12.00;99.90;;;;;;7381502;19;20423;-45
2022/09/21 07:17:18;;;;;;;7.47;5.67;;;12.10;99.90;;;;;;7376571;19;20388;-45
2022/09/21 07:19:49;;;;;;;10.80;6.47;;;12.30;99.90;;;;;;7381921;19;20380;-45
2022/09/21 07:22:21;;;;;;;8.03;5.43;;;12.30;98.30;;;;;;7382484;19;20427;-46
2022/09/21 07:24:50;;;;;;;8.37;6.23;;;12.50;99.90;;;;;;7384048;19;21974;-45
2022/09/21 07:27:20;;;;;;;8.23;5.90;;;12.60;99.90;;;;;;7382233;19;20856;-45
2022/09/21 07:29:49;;;;;;;11.47;6.53;;;12.90;99.90;;;;;;7383652;19;20391;-45
2022/09/21 07:32:19;;;;;;;11.17;6.17;;;13.00;95.60;;;;;;7384485;19;20372;-45
2022/09/21 07:34:48;;;;;;;12.97;6.20;;;13.10;96.00;;;;;;7385113;19;20465;-45
2022/09/21 07:37:22;;;;;;;11.63;6.67;;;13.20;95.60;;;;;;7385617;19;20917;-45
2022/09/21 07:39:52;;;;;;;9.30;6.57;;;13.10;95.20;;;;;;7383405;19;20377;-45
2022/09/21 07:42:25;;;;;;;11.53;7.30;;;13.10;94.00;;;;;;7386334;19;20388;-46
2022/09/21 07:44:55;;;;;;;10.90;6.10;;;13.00;92.40;;;;;;7382458;19;20723;-45
2022/09/21 07:47:28;;;;;;;12.33;6.47;;;13.00;95.30;;;;;;7385251;19;20380;-45
2022/09/21 07:49:57;;;;;;;10.67;6.20;;;13.10;95.60;;;;;;7384588;19;20497;-45
2022/09/21 07:52:30;;;;;;;7.30;5.07;;;13.10;95.10;;;;;;7383635;19;20379;-45
2022/09/21 07:54:59;;;;;;;10.80;5.73;;;13.20;94.50;;;;;;7381860;19;21031;-46
2022/09/21 08:00:12;;;;;;;9.23;5.40;;;13.10;93.80;;;;;;7381661;19;20898;-45
2022/09/21 08:02:41;;;;;;;9.20;5.87;;;13.10;93.50;;;;;;7382623;19;20434;-45
2022/09/21 08:05:11;;;;;;;12.90;6.50;;;13.20;93.10;;;;;;7383075;19;20420;-45
2022/09/21 08:07:43;;;;;;;8.60;6.00;;;13.20;91.90;;;;;;7383759;19;20384;-46
2022/09/21 08:10:12;;;;;;;12.03;6.10;;;13.30;91.20;;;;;;7380634;19;20993;-45
2022/09/21 08:12:43;;;;;;;15.87;6.97;;;13.40;91.40;;;;;;7380860;19;20376;-45
2022/09/21 08:15:13;;;;;;;6.80;5.40;;;13.60;92.00;;;;;;7383418;19;20384;-45
2022/09/21 08:17:43;;;;;;;7.60;5.70;;;14.10;91.70;;;;;;7380982;19;20391;-46
2022/09/21 08:20:12;;;;;;;9.23;6.27;;;14.70;88.50;;;;;;7383688;19;20420;-45
2022/09/21 08:22:44;;;;;;;6.40;5.37;;;15.20;83.00;;;;;;7383787;19;20771;-46
2022/09/21 08:25:14;;;;;;;10.97;5.67;;;15.80;77.50;;;;;;7381996;19;20923;-45
2022/09/21 08:27:43;;;;;;;9.23;5.30;;;16.40;75.00;;;;;;7382013;19;20416;-45
2022/09/21 08:30:14;;;;;;;5.73;4.67;;;16.90;70.30;;;;;;7381485;19;20380;-46
2022/09/21 08:32:43;;;;;;;7.83;6.30;;;17.30;68.80;;;;;;7377977;19;20401;-45
2022/09/21 08:35:13;;;;;;;14.57;6.90;;;17.90;66.20;;;;;;7378375;19;20419;-45
2022/09/21 08:37:45;;;;;;;13.60;6.53;;;18.40;63.00;;;;;;7380804;19;20877;-45
2022/09/21 08:40:15;;;;;;;14.47;5.53;;;19.00;61.40;;;;;;7377057;19;20379;-45
2022/09/21 08:42:54;;;;;;;7.43;5.53;;;19.50;59.10;;;;;;7379122;19;20380;-46
2022/09/21 08:45:26;;;;;;;7.43;4.93;;;19.80;57.40;;;;;;7379196;19;20507;-45
2022/09/21 08:48:00;;;;;;;5.77;4.30;;;20.00;56.50;;;;;;7377353;19;20387;-46
2022/09/21 08:50:38;;;;;;;5.80;4.57;;;20.60;55.50;;;;;;7380631;19;20376;-46
2022/09/21 08:53:19;;;;;;;12.53;6.00;;;21.00;54.10;;;;;;7377436;19;20376;-46
2022/09/21 08:55:49;;;;;;;7.43;4.40;;;21.30;53.90;;;;;;7378003;19;20988;-46
2022/09/21 08:58:24;;;;;;;6.80;4.87;;;21.60;52.60;;;;;;7380074;19;20835;-47
2022/09/21 09:01:06;;;;;;;5.97;4.30;;;21.40;51.80;;;;;;7381404;19;20804;-44
2022/09/21 09:04:01;;;;;;;8.70;5.57;;;21.30;52.50;;;;;;7384487;19;21000;-44
2022/09/21 09:06:39;;;;;;;7.27;4.50;;;22.10;51.90;;;;;;7384252;19;20917;-44
2022/09/21 09:09:33;;;;;;;6.47;3.73;;;22.80;51.30;;;;;;7379315;19;24116;-45
2022/09/21 09:12:24;;;;;;;4.60;3.20;;;23.90;49.20;;;;;;7377664;19;20375;-45
2022/09/21 09:15:16;;;;;;;5.10;3.73;;;24.50;47.60;;;;;;7378405;19;20417;-44
2022/09/21 09:17:54;;;;;;;3.77;2.80;;;24.90;46.90;;;;;;7381305;19;20376;-44
2022/09/21 09:20:30;;;;;;;5.00;3.80;;;25.10;45.40;;;;;;7379692;19;20966;-44
2022/09/21 09:23:08;;;;;;;5.60;3.07;;;25.50;45.60;;;;;;7389679;19;20375;-45
2022/09/21 09:25:44;;;;;;;5.97;3.20;;;24.90;44.90;;;;;;7387193;19;20368;-44
2022/09/21 09:28:28;;;;;;;2.00;1.77;;;25.20;45.20;;;;;;7383994;19;20396;-45
2022/09/21 09:31:08;;;;;;;5.10;3.00;;;25.40;44.10;;;;;;7388585;19;20816;-44
2022/09/21 09:33:49;;;;;;;4.00;1.83;;;26.00;43.50;;;;;;7388847;19;20379;-45
2022/09/21 09:36:19;;;;;;;4.57;2.70;;;26.60;41.80;;;;;;7386382;19;20399;-45
2022/09/21 09:38:55;;;;;;;3.43;2.07;;;26.10;42.30;;;;;;7386777;19;21027;-44
2022/09/21 09:41:47;;;;;;;6.93;2.33;;;26.00;42.30;;;;;;7381451;19;20397;-45
2022/09/21 09:44:29;;;;;;;6.40;3.40;;;25.40;43.30;;;;;;7384434;19;20396;-44
2022/09/21 09:47:07;;;;;;;3.93;2.70;;;24.20;44.60;;;;;;7382159;19;21081;-45
2022/09/21 09:49:47;;;;;;;3.60;2.23;;;23.90;46.30;;;;;;7386402;19;20380;-45
2022/09/21 09:52:17;;;;;;;7.60;2.90;;;23.70;45.70;;;;;;7387056;19;20836;-45
2022/09/21 09:54:47;;;;;;;7.33;2.50;;;23.00;46.30;;;;;;7387994;19;20957;-47
2022/09/21 09:57:30;;;;;;;4.77;2.10;;;22.30;47.40;;;;;;7386723;19;20364;-44
2022/09/21 10:00:07;;;;;;;3.20;2.10;;;21.80;48.70;;;;;;7385438;19;20367;-45
2022/09/21 10:02:49;;;;;;;2.77;2.13;;;21.00;50.00;;;;;;7382012;19;20380;-44
2022/09/21 10:05:25;;;;;;;3.43;2.27;;;20.60;50.80;;;;;;7384660;19;20817;-44
2022/09/21 10:07:54;;;;;;;2.90;1.60;;;21.30;49.90;;;;;;7384734;19;20471;-44
2022/09/21 10:10:28;;;;;;;3.00;2.20;;;21.90;48.40;;;;;;7383794;19;20432;-44
2022/09/21 10:13:14;;;;;;;5.27;1.90;;;22.00;47.90;;;;;;7382862;19;20716;-45
2022/09/21 10:15:50;;;;;;;3.67;2.17;;;21.70;48.70;;;;;;7388479;19;20429;-45
2022/09/21 10:18:23;;;;;;;3.63;1.83;;;21.70;48.30;;;;;;7388367;19;20963;-44
2022/09/21 10:21:04;;;;;;;6.37;2.57;;;21.60;48.00;;;;;;7384167;19;20753;-45
2022/09/21 10:23:35;;;;;;;4.80;1.80;;;21.30;49.50;;;;;;7385774;19;20712;-44
2022/09/21 10:26:10;;;;;;;3.60;2.73;;;20.80;48.50;;;;;;7383811;19;20379;-45
2022/09/21 10:28:57;;;;;;;6.97;2.13;;;20.80;49.30;;;;;;7386693;19;20380;-45
2022/09/21 10:31:28;;;;;;;3.40;1.30;;;22.20;49.60;;;;;;7387147;19;20379;-45
2022/09/21 10:34:09;;;;;;;3.07;1.53;;;24.00;46.00;;;;;;7384784;19;20372;-45
2022/09/21 10:36:39;;;;;;;2.40;1.50;;;25.80;42.10;;;;;;7381402;19;20444;-45
2022/09/21 10:39:25;;;;;;;2.23;1.40;;;25.70;41.00;;;;;;7383556;19;20375;-45
2022/09/21 10:41:59;;;;;;;1.47;0.70;;;24.80;42.10;;;;;;7380650;19;20393;-45
2022/09/21 10:44:39;;;;;;;2.00;1.17;;;24.10;42.50;;;;;;7380781;19;20379;-46
2022/09/21 10:47:25;;;;;;;1.43;0.93;;;23.50;43.40;;;;;;7382092;19;20763;-45
2022/09/21 10:49:57;;;;;;;1.67;0.80;;;24.40;42.70;;;;;;7384420;19;20412;-45
2022/09/21 10:52:35;;;;;;;1.20;0.83;;;25.50;40.40;;;;;;7382777;19;20368;-45
2022/09/21 10:55:05;;;;;;;6.33;1.47;;;27.10;38.50;;;;;;7383396;19;20364;-46
2022/09/21 10:57:35;;;;;;;2.57;0.90;;;28.50;36.60;;;;;;7384608;19;20964;-45
2022/09/21 11:00:34;;;;;;;6.77;1.17;;;28.90;35.30;;;;;;7383928;19;20383;-45
2022/09/21 11:03:27;;;;;;;1.03;0.77;;;28.50;34.40;;;;;;7382421;19;20384;-46
2022/09/21 11:05:58;;;;;;;2.00;0.90;;;27.10;35.50;;;;;;7384385;19;20451;-46
2022/09/21 11:08:34;;;;;;;3.63;1.10;;;25.30;38.60;;;;;;7384523;19;20764;-46
2022/09/21 11:11:18;;;;;;;8.73;2.00;;;24.20;40.20;;;;;;7383294;19;20379;-46
2022/09/21 11:13:55;;;;;;;3.20;0.70;;;23.50;42.40;;;;;;7383887;19;20368;-45
2022/09/21 11:16:32;;;;;;;2.00;0.73;;;23.90;42.10;;;;;;7379795;19;20386;-46
2022/09/21 11:19:13;;;;;;;1.50;0.90;;;25.00;39.50;;;;;;7387148;19;20934;-46
2022/09/21 11:21:47;;;;;;;1.37;0.90;;;24.60;39.70;;;;;;7383465;19;20383;-46
2022/09/21 11:24:25;;;;;;;0.87;0.67;;;25.60;40.30;;;;;;7384214;19;20375;-45
2022/09/21 11:26:58;;;;;;;4.70;2.20;;;26.50;38.30;;;;;;7382615;19;20398;-46
2022/09/21 11:29:35;;;;;;;2.97;2.00;;;27.10;37.40;;;;;;7382262;19;20364;-46
2022/09/21 11:32:22;;;;;;;1.67;1.03;;;26.90;37.30;;;;;;7384380;19;20439;-46
2022/09/21 11:35:25;;;;;;;2.73;1.77;;;26.00;37.90;;;;;;7382462;19;20392;-46
2022/09/21 11:38:11;;;;;;;0.83;0.70;;;25.00;39.70;;;;;;7382458;19;20405;-46
2022/09/21 11:40:56;;;;;;;2.10;0.90;;;23.80;41.40;;;;;;7383791;19;20368;-46
2022/09/21 11:43:47;;;;;;;2.17;0.90;;;22.90;41.50;;;;;;7384273;19;21470;-46
2022/09/21 11:46:26;;;;;;;2.37;1.30;;;22.30;43.00;;;;;;7380642;19;20938;-46
2022/09/21 11:49:14;;;;;;;2.80;1.90;;;21.90;43.70;;;;;;7386065;19;20427;-46
2022/09/21 11:51:57;;;;;;;1.40;1.10;;;21.70;44.50;;;;;;7385572;19;20427;-46
2022/09/21 11:54:59;;;;;;;2.00;0.90;;;22.00;44.00;;;;;;7381781;19;20372;-46
2022/09/21 11:57:33;;;;;;;2.83;1.70;;;21.80;43.70;;;;;;7377740;19;20483;-46
2022/09/21 12:00:21;;;;;;;0.87;0.60;;;21.60;44.60;;;;;;7381392;19;20713;-46
2022/09/21 12:03:18;;;;;;;1.80;0.87;;;21.20;45.00;;;;;;7381530;19;20368;-46
2022/09/21 12:06:05;;;;;;;1.80;0.87;;;21.70;45.30;;;;;;7382670;19;20738;-46
2022/09/21 12:09:08;;;;;;;1.67;0.93;;;23.80;42.40;;;;;;7382066;19;20368;-46
2022/09/21 12:11:44;;;;;;;1.80;0.93;;;25.90;38.20;;;;;;7379430;19;20383;-46
2022/09/21 12:14:23;;;;;;;1.33;0.70;;;27.00;35.80;;;;;;7382981;19;20463;-46
2022/09/21 12:17:00;;;;;;;0.70;0.50;;;26.10;35.10;;;;;;7381004;19;20411;-46
2022/09/21 12:19:38;;;;;;;0.90;0.70;;;24.80;37.20;;;;;;7378773;19;20376;-46
2022/09/21 12:22:16;;;;;;;1.33;0.70;;;23.30;39.00;;;;;;7381813;19;20376;-46
2022/09/21 12:24:48;;;;;;;1.17;0.80;;;22.50;40.90;;;;;;7379525;19;20759;-46
2022/09/21 12:27:27;;;;;;;0.87;0.73;;;22.00;41.70;;;;;;7377776;19;20417;-46
2022/09/21 12:30:02;;;;;;;0.60;0.50;;;21.90;42.60;;;;;;7379169;19;20393;-46
2022/09/21 12:32:48;;;;;;;1.17;0.53;;;22.70;42.10;;;;;;7377320;19;20415;-47
2022/09/21 12:35:25;;;;;;;1.90;0.53;;;23.80;39.40;;;;;;7382662;19;20422;-46
2022/09/21 12:38:03;;;;;;;2.80;1.00;;;23.60;39.50;;;;;;7377837;19;20527;-46
2022/09/21 12:40:41;;;;;;;2.90;0.63;;;23.00;39.80;;;;;;7377094;19;20929;-46
2022/09/21 12:43:23;;;;;;;1.53;0.73;;;22.50;40.90;;;;;;7382182;19;20413;-46
2022/09/21 12:45:58;;;;;;;1.33;0.60;;;23.00;40.30;;;;;;7382119;19;20484;-46
2022/09/21 12:48:35;;;;;;;1.40;0.73;;;23.60;39.70;;;;;;7376433;19;20774;-47
2022/09/21 12:51:14;;;;;;;1.00;0.50;;;25.00;38.60;;;;;;7378685;19;20371;-46
2022/09/21 12:53:49;;;;;;;0.90;0.57;;;26.10;36.30;;;;;;7379319;19;20368;-46
2022/09/21 12:56:36;;;;;;;1.03;0.50;;;26.70;34.80;;;;;;7379108;19;20388;-47
2022/09/21 12:59:20;;;;;;;1.67;0.60;;;27.70;33.30;;;;;;7377258;19;20368;-47
2022/09/21 13:01:55;;;;;;;1.00;0.70;;;27.90;32.60;;;;;;7378815;19;20443;-46
2022/09/21 13:04:42;;;;;;;1.03;0.50;;;29.00;32.20;;;;;;7376063;19;20410;-47
2022/09/21 13:07:54;;;;;;;0.67;0.50;;;30.30;31.10;;;;;;7377897;19;20378;-46
2022/09/21 13:10:44;;;;;;;2.27;0.60;;;30.80;29.60;;;;;;7378003;19;21013;-47
2022/09/21 13:13:27;;;;;;;0.63;0.40;;;28.90;31.60;;;;;;7383400;19;20368;-46
2022/09/21 13:15:58;;;;;;;4.30;0.40;;;27.30;32.50;;;;;;7381752;19;20750;-46
2022/09/21 13:18:32;;;;;;;0.93;0.47;;;25.00;35.40;;;;;;7354653;19;21152;-46
2022/09/21 13:21:03;;;;;;;0.70;0.60;;;23.80;37.60;;;;;;7379715;19;20423;-46
2022/09/21 13:23:40;;;;;;;6.53;2.43;;;23.60;38.20;;;;;;7378705;19;20384;-46
2022/09/21 13:26:14;;;;;;;1.60;0.63;;;24.80;37.90;;;;;;7380580;19;20447;-47
2022/09/21 13:29:05;;;;;;;0.80;0.40;;;26.60;35.10;;;;;;7378759;19;20725;-47
2022/09/21 13:31:56;;;;;;;2.30;0.80;;;28.20;33.10;;;;;;7378318;19;20387;-47
2022/09/21 13:34:33;;;;;;;1.07;0.57;;;29.60;31.40;;;;;;7377517;19;20382;-47